Trevor, Wisconsin
Current Conditions -  °F | °C
As of 9:53 PM on Wednesday 22 Oct 2014 (Local Time) from KENW Reporting Station
Clear Clear  
Wind Chill:   Ceiling: Unl
Heat Index:   Visibility: 10mi
Dew Point:   Wind: 5mph
Humidity: 86%   Direction: 160°SSE
Pressure: 30.28"   Gusts: NA
Location:  42.51°N, 88.12°W
Report Text: KENW 230253Z AUTO 16004KT 10SM CLR 03/01 A3028 RMK AO2 SLP258 T00330011 53001
Loading
Personal Weather Stations






























Interactive Weather Map
Tropical Storm Tracking
New forecast layout! Learn more

10-Day Weather Forecast

Advertisements
Track Severe Weather on mobile